Time,TemperatureF,DewpointF,PressureIn,WindDirection,WindDirectionDegrees,WindSpeedMPH,WindSpeedGustMPH,Humidity,HourlyPrecipIn,Conditions,Clouds,dailyrainin,SoftwareType,DateUTC
2013-06-25 09:12:00,67.0,43.0,30.14,SW,236,1.0,2.0,42,0.00,,,0.00,,2013-06-25 16:12:00,
2013-06-25 09:23:00,68.0,44.0,30.14,North,8,1.0,5.0,42,0.00,,,0.00,,2013-06-25 16:23:00,
2013-06-25 09:34:00,69.0,45.0,30.14,SW,230,1.0,5.0,42,0.00,,,0.00,,2013-06-25 16:34:00,
2013-06-25 09:43:00,70.0,46.0,30.14,SSW,192,0.0,0.0,42,0.00,,,0.00,,2013-06-25 16:43:00,
2013-06-25 09:52:00,71.0,37.0,30.14,SW,223,1.0,6.0,29,0.00,,,0.00,,2013-06-25 16:52:00,
2013-06-25 10:01:00,72.0,38.0,30.14,SSW,196,1.0,4.0,29,0.00,,,0.00,,2013-06-25 17:01:00,
2013-06-25 10:11:00,72.0,37.0,30.14,SW,233,1.0,7.0,28,0.00,,,0.00,,2013-06-25 17:11:00,
2013-06-25 10:22:00,72.0,37.0,30.14,SW,233,1.0,7.0,28,0.00,,,0.00,,2013-06-25 17:22:00,
2013-06-25 10:43:00,73.0,37.0,30.15,SSW,196,2.0,5.0,27,0.00,,,0.00,,2013-06-25 17:43:00,
2013-06-25 10:53:00,73.0,36.0,30.15,SW,219,3.0,10.0,26,0.00,,,0.00,,2013-06-25 17:53:00,
2013-06-25 11:02:00,73.0,36.0,30.15,SSW,193,1.0,6.0,26,0.00,,,0.00,,2013-06-25 18:02:00,
2013-06-25 11:12:00,73.0,36.0,30.15,SW,226,3.0,12.0,26,0.00,,,0.00,,2013-06-25 18:12:00,
2013-06-25 11:22:00,73.0,37.0,30.15,South,189,4.0,9.0,27,0.00,,,0.00,,2013-06-25 18:22:00,
2013-06-25 11:33:00,74.0,39.0,30.16,SW,229,4.0,12.0,28,0.00,,,0.00,,2013-06-25 18:33:00,
2013-06-25 11:44:00,73.0,38.0,30.16,SSW,209,4.0,7.0,28,0.00,,,0.00,,2013-06-25 18:44:00,
2013-06-25 11:52:00,73.0,38.0,30.16,SW,223,5.0,7.0,28,0.00,,,0.00,,2013-06-25 18:52:00,
2013-06-25 12:01:00,74.0,39.0,30.16,SSW,213,2.0,7.0,28,0.00,,,0.00,,2013-06-25 19:01:00,
2013-06-25 12:11:00,75.0,40.0,30.16,West,265,3.0,8.0,28,0.00,,,0.00,,2013-06-25 19:11:00,
2013-06-25 12:44:00,75.0,38.0,30.16,SW,219,4.0,11.0,26,0.00,,,0.00,,2013-06-25 19:44:00,
2013-06-25 13:01:00,76.0,36.0,30.16,SW,222,4.0,10.0,23,0.00,,,0.00,,2013-06-25 20:01:00,
2013-06-25 13:21:00,76.0,36.0,30.16,SSW,192,3.0,0.0,23,0.00,,,0.00,,2013-06-25 20:21:00,
2013-06-25 13:33:00,77.0,36.0,30.16,South,175,2.0,9.0,23,0.00,,,0.00,,2013-06-25 20:33:00,
2013-06-25 13:42:00,77.0,39.0,30.16,SSW,200,4.0,9.0,26,0.00,,,0.00,,2013-06-25 20:42:00,
2013-06-25 13:52:00,77.0,37.0,30.16,WNW,298,4.0,9.0,24,0.00,,,0.00,,2013-06-25 20:52:00,
2013-06-25 14:01:00,76.0,38.0,30.16,SSW,209,4.0,9.0,25,0.00,,,0.00,,2013-06-25 21:01:00,
2013-06-25 14:11:00,77.0,38.0,30.16,South,174,4.0,13.0,25,0.00,,,0.00,,2013-06-25 21:11:00,
2013-06-25 14:22:00,76.0,38.0,30.16,WSW,248,6.0,13.0,25,0.00,,,0.00,,2013-06-25 21:22:00,
2013-06-25 14:33:00,76.0,38.0,30.16,SW,219,6.0,13.0,25,0.00,,,0.00,,2013-06-25 21:33:00,
2013-06-25 14:43:00,77.0,38.0,30.16,SSW,208,0.0,11.0,25,0.00,,,0.00,,2013-06-25 21:43:00,
2013-06-25 14:53:00,77.0,36.0,30.16,SSW,193,3.0,9.0,23,0.00,,,0.00,,2013-06-25 21:53:00,
2013-06-25 15:01:00,77.0,36.0,30.16,SSW,195,4.0,10.0,23,0.00,,,0.00,,2013-06-25 22:01:00,
2013-06-25 15:11:00,78.0,37.0,30.16,South,189,3.0,11.0,23,0.00,,,0.00,,2013-06-25 22:11:00,
2013-06-25 15:22:00,77.0,39.0,30.16,WSW,250,3.0,12.0,26,0.00,,,0.00,,2013-06-25 22:22:00,
2013-06-25 15:33:00,77.0,38.0,30.16,SSE,152,4.0,12.0,25,0.00,,,0.00,,2013-06-25 22:33:00,
2013-06-25 15:42:00,77.0,38.0,30.16,SW,224,4.0,10.0,25,0.00,,,0.00,,2013-06-25 22:42:00,
2013-06-25 15:52:00,77.0,38.0,30.16,SW,223,4.0,10.0,25,0.00,,,0.00,,2013-06-25 22:52:00,
2013-06-25 16:01:00,78.0,39.0,30.15,SSW,210,2.0,9.0,25,0.00,,,0.00,,2013-06-25 23:01:00,
2013-06-25 16:11:00,78.0,39.0,30.15,SW,224,3.0,6.0,25,0.00,,,0.00,,2013-06-25 23:11:00,
2013-06-25 16:22:00,78.0,39.0,30.15,WSW,244,2.0,6.0,25,0.00,,,0.00,,2013-06-25 23:22:00,
2013-06-25 16:34:00,78.0,40.0,30.15,South,185,1.0,4.0,26,0.00,,,0.00,,2013-06-25 23:34:00,
2013-06-25 16:43:00,78.0,39.0,30.15,SSW,209,4.0,11.0,25,0.00,,,0.00,,2013-06-25 23:43:00,
2013-06-25 16:52:00,78.0,40.0,30.15,SW,217,1.0,11.0,26,0.00,,,0.00,,2013-06-25 23:52:00,
2013-06-25 18:32:00,73.0,45.0,30.14,West,268,3.0,6.0,37,0.00,,,0.00,,2013-06-26 01:32:00,
2013-06-25 18:43:00,73.0,45.0,30.14,South,169,0.0,6.0,37,0.00,,,0.00,,2013-06-26 01:43:00,
2013-06-25 18:52:00,72.0,44.0,30.14,SSW,213,2.0,9.0,37,0.00,,,0.00,,2013-06-26 01:52:00,
2013-06-25 19:01:00,72.0,47.0,30.14,SSW,213,3.0,9.0,41,0.00,,,0.00,,2013-06-26 02:01:00,
2013-06-25 19:11:00,71.0,46.0,30.15,SSW,209,1.0,6.0,41,0.00,,,0.00,,2013-06-26 02:11:00,
2013-06-25 19:22:00,70.0,46.0,30.15,SW,226,1.0,5.0,42,0.00,,,0.00,,2013-06-26 02:22:00,
2013-06-25 19:34:00,70.0,47.0,30.15,SW,230,1.0,5.0,44,0.00,,,0.00,,2013-06-26 02:34:00,
2013-06-25 19:43:00,69.0,46.0,30.15,South,175,1.0,6.0,44,0.00,,,0.00,,2013-06-26 02:43:00,
2013-06-25 19:53:00,68.0,46.0,30.15,SSW,199,1.0,6.0,45,0.00,,,0.00,,2013-06-26 02:53:00,
2013-06-25 20:01:00,68.0,46.0,30.15,South,179,0.0,0.0,45,0.00,,,0.00,,2013-06-26 03:01:00,
2013-06-25 20:11:00,67.0,47.0,30.16,WSW,240,0.0,0.0,48,0.00,,,0.00,,2013-06-26 03:11:00,
2013-06-25 20:22:00,67.0,47.0,30.16,WSW,240,0.0,0.0,49,0.00,,,0.00,,2013-06-26 03:22:00,
2013-06-25 20:33:00,66.0,47.0,30.16,WSW,240,0.0,0.0,50,0.00,,,0.00,,2013-06-26 03:33:00,
2013-06-25 20:43:00,65.0,47.0,30.16,WSW,240,0.0,0.0,52,0.00,,,0.00,,2013-06-26 03:43:00,
2013-06-25 20:52:00,65.0,47.0,30.16,WSW,240,0.0,1.0,52,0.00,,,0.00,,2013-06-26 03:52:00,
2013-06-25 21:01:00,65.0,47.0,30.16,WSW,237,0.0,1.0,53,0.00,,,0.00,,2013-06-26 04:01:00,
2013-06-25 21:11:00,64.0,47.0,30.16,WSW,237,0.0,0.0,55,0.00,,,0.00,,2013-06-26 04:11:00,
2013-06-25 21:21:00,63.0,47.0,30.16,WSW,237,0.0,0.0,55,0.00,,,0.00,,2013-06-26 04:21:00,
2013-06-25 21:33:00,63.0,47.0,30.16,WSW,237,0.0,0.0,55,0.00,,,0.00,,2013-06-26 04:33:00,
2013-06-25 21:43:00,63.0,47.0,30.16,WSW,237,0.0,0.0,56,0.00,,,0.00,,2013-06-26 04:43:00,
2013-06-25 21:53:00,62.0,47.0,30.17,WSW,237,0.0,0.0,58,0.00,,,0.00,,2013-06-26 04:53:00,
2013-06-25 22:02:00,62.0,47.0,30.17,WSW,237,0.0,2.0,58,0.00,,,0.00,,2013-06-26 05:02:00,
2013-06-25 22:11:00,61.0,47.0,30.17,WSW,237,0.0,0.0,59,0.00,,,0.00,,2013-06-26 05:11:00,
2013-06-25 22:21:00,60.0,46.0,30.17,WSW,237,0.0,0.0,60,0.00,,,0.00,,2013-06-26 05:21:00,
2013-06-25 22:33:00,60.0,47.0,30.18,WSW,237,0.0,0.0,61,0.00,,,0.00,,2013-06-26 05:33:00,
2013-06-25 22:43:00,60.0,47.0,30.18,WSW,237,0.0,0.0,63,0.00,,,0.00,,2013-06-26 05:43:00,
2013-06-25 22:52:00,59.0,46.0,30.18,WSW,237,0.0,0.0,63,0.00,,,0.00,,2013-06-26 05:52:00,
2013-06-25 23:01:00,59.0,46.0,30.18,WSW,237,0.0,0.0,63,0.00,,,0.00,,2013-06-26 06:01:00,
2013-06-25 23:11:00,58.0,47.0,30.18,WSW,237,0.0,0.0,66,0.00,,,0.00,,2013-06-26 06:11:00,
2013-06-25 23:22:00,58.0,47.0,30.18,WSW,237,0.0,0.0,66,0.00,,,0.00,,2013-06-26 06:22:00,
2013-06-25 23:34:00,57.0,46.0,30.18,WSW,237,0.0,0.0,67,0.00,,,0.00,,2013-06-26 06:34:00,
2013-06-25 23:43:00,57.0,46.0,30.18,WSW,237,0.0,0.0,67,0.00,,,0.00,,2013-06-26 06:43:00,
2013-06-25 23:53:00,57.0,47.0,30.18,WSW,237,0.0,0.0,69,0.00,,,0.00,,2013-06-26 06:53:00,